Time;durP1;ratioP1;P1;durP2;ratioP2;P2;SDS_P1;SDS_P2;PMS_P1;PMS_P2;Temp;Humidity;BMP_temperature;BMP_pressure;BME280_temperature;BME280_humidity;BME280_pressure;Samples;Min_cycle;Max_cycle;Signal;HPM_P1;HPM_P2
2023/01/12 00:01:27;;;;;;;1.20;0.80;;;;;;;7.60;96.86;96062.00;5078770;28;20628;-82
2023/01/12 00:03:54;;;;;;;1.00;0.90;;;;;;;7.60;96.75;96059.44;5077234;28;20189;-82
2023/01/12 00:06:22;;;;;;;1.00;0.87;;;;;;;7.58;97.04;96057.97;5077955;28;20338;-82
2023/01/12 00:08:50;;;;;;;1.27;0.80;;;;;;;7.48;95.78;96065.75;5077579;28;20207;-82
2023/01/12 00:11:18;;;;;;;0.80;0.80;;;;;;;7.40;94.76;96046.91;5077278;28;20871;-82
2023/01/12 00:13:45;;;;;;;1.17;0.90;;;;;;;7.36;95.11;96053.28;5077737;28;20273;-82
2023/01/12 00:16:36;;;;;;;1.50;0.90;;;;;;;7.42;96.19;96056.06;5077532;28;20870;-82
2023/01/12 00:19:05;;;;;;;1.67;0.90;;;;;;;7.50;95.39;96053.59;5076787;28;20201;-83
2023/01/12 00:21:33;;;;;;;0.80;0.80;;;;;;;7.51;95.17;96056.94;5076802;28;20695;-82
2023/01/12 00:23:59;;;;;;;1.37;1.00;;;;;;;7.50;95.30;96055.34;5076840;28;20228;-82
2023/01/12 00:26:25;;;;;;;0.80;0.80;;;;;;;7.51;95.29;96046.69;5077628;28;20219;-83
2023/01/12 00:28:52;;;;;;;1.50;1.20;;;;;;;7.53;95.47;96052.47;5076908;28;20200;-82
2023/01/12 00:31:23;;;;;;;1.53;0.90;;;;;;;7.49;95.67;96046.88;5078176;28;20223;-82
2023/01/12 00:33:52;;;;;;;1.20;1.10;;;;;;;7.42;96.35;96037.34;5077008;28;20204;-82
2023/01/12 00:36:19;;;;;;;1.20;0.90;;;;;;;7.46;96.12;96034.34;5076413;28;20224;-83
2023/01/12 00:38:49;;;;;;;0.97;0.80;;;;;;;7.47;95.52;96033.41;5076926;28;20297;-82
2023/01/12 00:45:20;;;;;;;1.07;0.87;;;;;;;7.51;95.46;96039.81;5077179;28;20201;-82
2023/01/12 00:46:51;;;;;;;2.00;1.00;;;;;;;7.48;94.62;96041.88;5076257;28;20273;-82
2023/01/12 00:49:17;;;;;;;2.47;1.10;;;;;;;7.48;94.20;96044.44;5076963;28;20196;-82
2023/01/12 00:51:44;;;;;;;1.00;0.90;;;;;;;7.53;94.76;96040.47;5076576;28;20208;-82
2023/01/12 00:54:10;;;;;;;1.30;0.90;;;;;;;7.48;93.83;96045.25;5076472;28;20204;-82
2023/01/12 00:56:38;;;;;;;1.23;1.00;;;;;;;7.50;94.33;96042.56;5075851;28;20228;-82
2023/01/12 00:59:05;;;;;;;2.17;1.20;;;;;;;7.35;94.37;96044.78;5076676;28;20216;-82
2023/01/12 01:01:32;;;;;;;1.20;1.07;;;;;;;7.23;95.25;96046.75;5075946;28;20203;-82
2023/01/12 01:04:01;;;;;;;2.10;1.20;;;;;;;7.21;95.06;96047.84;5076336;28;20228;-82
2023/01/12 01:06:27;;;;;;;1.90;1.13;;;;;;;7.14;95.70;96051.94;5076994;28;20221;-82
2023/01/12 01:08:54;;;;;;;1.40;1.30;;;;;;;7.15;95.19;96053.53;5076305;28;20209;-82
2023/01/12 01:11:21;;;;;;;3.20;1.37;;;;;;;7.18;94.69;96045.56;5075973;28;20201;-82
2023/01/12 01:13:48;;;;;;;2.03;1.17;;;;;;;7.15;94.91;96056.09;5076213;28;20204;-82
2023/01/12 01:16:17;;;;;;;1.80;1.13;;;;;;;7.21;94.35;96058.91;5076067;28;20231;-82
2023/01/12 01:18:44;;;;;;;2.63;1.10;;;;;;;7.26;93.16;96051.59;5076372;28;20207;-82
2023/01/12 01:21:13;;;;;;;1.97;1.33;;;;;;;7.16;92.75;96045.72;5076506;28;20718;-82
2023/01/12 01:23:41;;;;;;;4.27;1.63;;;;;;;7.07;92.55;96053.47;5076838;28;20270;-82
2023/01/12 01:26:10;;;;;;;2.70;1.53;;;;;;;7.07;93.21;96046.59;5076511;28;20216;-82
2023/01/12 01:28:37;;;;;;;2.27;1.37;;;;;;;7.03;93.34;96052.94;5077054;28;20266;-82
2023/01/12 01:31:05;;;;;;;2.70;1.47;;;;;;;7.00;92.40;96048.09;5076449;28;20193;-82
2023/01/12 01:33:31;;;;;;;2.37;1.30;;;;;;;6.97;92.71;96055.25;5076084;28;20197;-82
2023/01/12 01:35:58;;;;;;;4.70;1.30;;;;;;;6.87;92.25;96050.19;5075946;28;20224;-82
2023/01/12 01:38:26;;;;;;;2.70;1.17;;;;;;;6.87;91.97;96056.13;5075802;28;20197;-82
2023/01/12 01:40:53;;;;;;;3.67;1.60;;;;;;;6.81;92.24;96043.88;5076343;28;20208;-82
2023/01/12 01:43:22;;;;;;;1.60;1.20;;;;;;;6.86;92.34;96038.34;5076408;28;20688;-82
2023/01/12 01:45:56;;;;;;;5.13;1.70;;;;;;;6.83;92.15;96044.56;5075992;28;20225;-82
2023/01/12 01:48:24;;;;;;;1.93;1.20;;;;;;;6.86;91.90;96041.72;5075601;28;20227;-82
2023/01/12 01:50:56;;;;;;;2.07;1.40;;;;;;;6.98;91.12;96044.06;5075985;28;20711;-83
2023/01/12 01:53:25;;;;;;;3.20;1.47;;;;;;;7.02;90.62;96059.00;5076761;28;20281;-82
2023/01/12 01:55:57;;;;;;;3.20;1.30;;;;;;;6.84;90.37;96053.84;5075081;28;20282;-82
2023/01/12 01:58:28;;;;;;;4.90;1.53;;;;;;;6.89;90.08;96053.44;5076390;28;20224;-82
2023/01/12 02:00:56;;;;;;;2.23;1.10;;;;;;;6.93;89.77;96050.41;5076818;28;20212;-82
2023/01/12 02:03:24;;;;;;;3.07;1.20;;;;;;;6.87;89.55;96057.88;5075717;28;20208;-82
2023/01/12 02:05:52;;;;;;;3.87;1.40;;;;;;;6.92;89.35;96050.59;5076527;28;20247;-82
2023/01/12 02:08:26;;;;;;;2.20;1.10;;;;;;;6.94;88.73;96048.66;5076440;28;20749;-82
2023/01/12 02:10:56;;;;;;;2.63;1.60;;;;;;;6.98;89.11;96042.31;5075730;28;20717;-82
2023/01/12 02:16:22;;;;;;;3.63;1.17;;;;;;;7.10;88.04;96037.81;5075187;28;20308;-82
2023/01/12 02:18:56;;;;;;;2.60;1.20;;;;;;;7.09;87.76;96037.00;5076196;28;20272;-83
2023/01/12 02:21:56;;;;;;;2.50;1.30;;;;;;;7.07;86.91;96035.53;5075624;28;20205;-82
2023/01/12 02:24:58;;;;;;;2.60;1.30;;;;;;;7.04;86.58;96023.84;5074621;28;20258;-82
2023/01/12 02:27:46;;;;;;;3.17;1.30;;;;;;;7.03;87.11;96029.91;5079577;28;20385;-82
2023/01/12 02:30:54;;;;;;;3.23;1.30;;;;;;;7.00;86.71;96029.38;5080657;28;20203;-82
2023/01/12 02:33:34;;;;;;;2.33;1.17;;;;;;;6.94;86.43;96026.44;5053311;28;20254;-82
2023/01/12 02:36:08;;;;;;;2.97;1.30;;;;;;;6.85;86.62;96024.75;5078522;28;20707;-82
2023/01/12 02:38:38;;;;;;;3.47;1.30;;;;;;;6.83;87.16;96020.72;5079450;28;20196;-82
2023/01/12 02:41:16;;;;;;;4.57;1.20;;;;;;;6.81;87.41;96017.50;5079735;28;20204;-82
2023/01/12 02:43:43;;;;;;;2.83;1.03;;;;;;;6.85;87.21;96014.50;5079815;28;20205;-82
2023/01/12 02:46:14;;;;;;;5.43;1.60;;;;;;;6.89;86.54;96015.03;5079681;28;20231;-83
2023/01/12 02:48:48;;;;;;;5.33;1.47;;;;;;;6.91;86.44;96013.94;5079118;28;20217;-82
2023/01/12 02:51:22;;;;;;;2.50;1.20;;;;;;;6.87;86.23;96009.25;5079365;28;20227;-82
2023/01/12 02:53:51;;;;;;;2.87;1.50;;;;;;;6.91;85.93;96010.56;5079962;28;20197;-82
2023/01/12 02:56:21;;;;;;;2.50;1.10;;;;;;;6.90;85.59;96012.34;5078293;28;20239;-82
2023/01/12 02:58:52;;;;;;;2.50;1.10;;;;;;;6.93;85.91;96011.22;5079489;28;20200;-82
2023/01/12 03:01:21;;;;;;;6.73;1.73;;;;;;;6.94;85.63;96023.88;5079309;28;20207;-82
2023/01/12 03:03:50;;;;;;;5.03;1.17;;;;;;;6.92;85.40;96022.44;5079227;28;20660;-83
2023/01/12 03:06:18;;;;;;;3.83;1.47;;;;;;;6.93;85.46;96022.25;5079925;28;20221;-82
2023/01/12 03:08:48;;;;;;;5.87;1.40;;;;;;;6.89;85.21;96020.16;5079424;28;20232;-82
2023/01/12 03:11:16;;;;;;;3.90;1.17;;;;;;;6.90;85.40;96021.75;5078640;28;20204;-82
2023/01/12 03:13:47;;;;;;;4.37;1.20;;;;;;;6.94;84.76;96007.72;5079880;28;20189;-82
2023/01/12 03:16:17;;;;;;;3.63;1.60;;;;;;;6.93;84.70;96008.66;5078768;28;20521;-82
2023/01/12 03:18:51;;;;;;;2.70;1.10;;;;;;;6.93;84.80;96008.66;5078942;28;20201;-82
2023/01/12 03:21:25;;;;;;;2.73;1.33;;;;;;;6.88;84.73;96000.63;5078662;28;20234;-82
2023/01/12 03:23:58;;;;;;;2.33;1.20;;;;;;;6.88;84.43;96001.44;5079361;28;20258;-82
2023/01/12 03:26:27;;;;;;;2.23;1.30;;;;;;;6.80;84.47;96009.00;5078246;28;20598;-82
2023/01/12 03:28:59;;;;;;;4.43;1.20;;;;;;;6.85;84.50;96011.13;5078585;28;20221;-82
2023/01/12 03:31:29;;;;;;;3.40;1.20;;;;;;;6.83;84.42;96020.72;5079208;28;20220;-82
2023/01/12 03:33:57;;;;;;;2.37;1.00;;;;;;;6.78;84.46;96026.25;5078571;28;20197;-82
2023/01/12 03:36:31;;;;;;;3.00;1.30;;;;;;;6.63;85.00;96020.00;5078582;28;20231;-82
2023/01/12 03:39:12;;;;;;;3.20;1.50;;;;;;;6.69;85.22;96009.22;5079925;28;20714;-82
2023/01/12 03:41:48;;;;;;;1.77;1.07;;;;;;;6.71;84.96;96011.63;5084043;28;20201;-82
2023/01/12 03:44:20;;;;;;;3.07;1.17;;;;;;;6.67;84.41;96007.72;5084943;28;20205;-82
2023/01/12 03:46:54;;;;;;;3.97;1.50;;;;;;;6.64;84.68;96005.44;5083606;28;20286;-82
2023/01/12 03:49:27;;;;;;;5.97;1.73;;;;;;;6.63;84.86;96007.19;5082939;28;20246;-82
2023/01/12 03:51:57;;;;;;;3.47;1.40;;;;;;;6.63;84.35;96003.84;5083249;28;20208;-82
2023/01/12 03:54:26;;;;;;;3.87;1.10;;;;;;;6.69;84.68;95998.16;5083557;28;20243;-82
2023/01/12 03:56:54;;;;;;;4.43;1.33;;;;;;;6.66;84.28;95994.13;5082843;28;20577;-82
2023/01/12 03:59:21;;;;;;;3.57;1.30;;;;;;;6.71;84.16;95993.72;5082719;28;20703;-82
2023/01/12 04:01:48;;;;;;;3.43;1.20;;;;;;;6.69;83.94;95993.03;5084262;28;20630;-82
2023/01/12 04:04:15;;;;;;;4.13;1.20;;;;;;;6.71;84.09;95989.41;5082779;28;20193;-82
2023/01/12 04:06:42;;;;;;;4.97;1.20;;;;;;;6.68;83.70;95986.31;5079190;28;20236;-83
2023/01/12 04:09:09;;;;;;;4.13;1.53;;;;;;;6.69;83.54;95991.28;5074850;28;20217;-82
2023/01/12 04:14:19;;;;;;;1.87;1.20;;;;;;;6.67;82.96;95989.81;5076745;28;20202;-82
2023/01/12 04:16:46;;;;;;;2.10;1.00;;;;;;;6.64;82.93;95996.03;5077086;28;20225;-82
2023/01/12 04:19:13;;;;;;;2.57;1.10;;;;;;;6.62;82.60;95992.78;5075964;28;20216;-82
2023/01/12 04:24:25;;;;;;;2.40;1.00;;;;;;;6.64;82.50;95988.34;5076590;28;20210;-83
2023/01/12 04:26:51;;;;;;;2.00;1.03;;;;;;;6.58;82.47;95982.03;5076550;28;20216;-82
2023/01/12 04:29:17;;;;;;;3.13;1.10;;;;;;;6.62;82.56;95981.75;5076087;28;20601;-82
2023/01/12 04:31:44;;;;;;;3.70;1.20;;;;;;;6.65;82.15;95987.41;5076106;28;20222;-82
2023/01/12 04:34:10;;;;;;;5.07;1.27;;;;;;;6.68;82.23;95976.09;5075890;28;20208;-82
2023/01/12 04:36:37;;;;;;;3.50;1.43;;;;;;;6.68;81.98;95976.88;5075660;28;20267;-82
2023/01/12 04:39:04;;;;;;;6.03;1.47;;;;;;;6.70;81.42;95971.63;5075354;28;20283;-82
2023/01/12 04:41:31;;;;;;;3.80;1.30;;;;;;;6.74;81.13;95970.38;5075389;28;20204;-82
2023/01/12 04:43:58;;;;;;;2.50;0.90;;;;;;;6.72;80.36;95959.50;5075660;28;20197;-82
2023/01/12 04:46:24;;;;;;;3.47;1.30;;;;;;;6.74;80.39;95966.06;5074104;28;20278;-82
2023/01/12 04:48:51;;;;;;;3.37;1.30;;;;;;;6.77;80.34;95959.84;5075184;28;20256;-82
2023/01/12 04:51:17;;;;;;;2.33;1.23;;;;;;;6.72;80.22;95962.06;5074845;28;20193;-82
2023/01/12 04:53:44;;;;;;;1.87;1.07;;;;;;;6.68;79.56;95969.22;5075547;28;20200;-82
2023/01/12 04:56:10;;;;;;;2.37;1.07;;;;;;;6.61;79.60;95962.25;5074727;28;20263;-82
2023/01/12 04:58:38;;;;;;;2.17;0.90;;;;;;;6.55;79.25;95966.16;5074970;28;20230;-82
2023/01/12 05:01:08;;;;;;;5.80;1.20;;;;;;;6.49;79.71;95959.88;5075252;28;20208;-82
2023/01/12 05:03:35;;;;;;;3.73;1.13;;;;;;;6.36;79.88;95956.00;5073143;28;20205;-82
2023/01/12 05:06:02;;;;;;;2.50;1.03;;;;;;;6.25;79.96;95964.69;5074951;28;20213;-82
2023/01/12 05:11:12;;;;;;;6.97;1.37;;;;;;;6.29;79.83;95963.47;5075873;28;20906;-82
2023/01/12 05:13:40;;;;;;;3.27;1.00;;;;;;;6.29;80.19;95966.03;5075497;28;20204;-83
2023/01/12 05:16:11;;;;;;;1.57;0.90;;;;;;;6.34;79.49;95963.84;5075605;28;20229;-82
2023/01/12 05:18:38;;;;;;;2.80;1.30;;;;;;;6.39;79.08;95974.44;5075517;28;20196;-82
2023/01/12 05:21:05;;;;;;;1.97;1.30;;;;;;;6.33;79.14;95969.91;5074831;28;20258;-82
2023/01/12 05:23:31;;;;;;;2.47;1.00;;;;;;;6.30;78.95;95971.94;5075140;28;20201;-82
2023/01/12 05:25:59;;;;;;;4.50;1.10;;;;;;;6.28;79.23;95969.53;5075823;28;20220;-82
2023/01/12 05:28:25;;;;;;;4.17;1.40;;;;;;;6.31;78.78;95963.34;5074412;28;20316;-82
2023/01/12 05:30:53;;;;;;;2.47;1.33;;;;;;;6.35;78.23;95951.88;5076156;28;20702;-83
2023/01/12 05:33:20;;;;;;;2.53;1.23;;;;;;;6.40;78.37;95957.34;5076044;28;20197;-85
2023/01/12 05:35:46;;;;;;;2.23;1.20;;;;;;;6.43;78.07;95965.56;5072913;28;20603;-85
2023/01/12 05:38:13;;;;;;;2.90;1.23;;;;;;;6.38;77.72;95954.13;5073553;28;20197;-85
2023/01/12 05:40:39;;;;;;;4.37;1.10;;;;;;;6.31;77.53;95959.03;5072844;28;20201;-85
2023/01/12 05:45:50;;;;;;;3.63;1.27;;;;;;;6.32;77.86;95962.38;5072464;28;20270;-85
2023/01/12 05:48:17;;;;;;;3.30;1.30;;;;;;;6.31;77.31;95959.03;5072572;28;20220;-85
2023/01/12 05:50:44;;;;;;;3.40;1.10;;;;;;;6.23;77.26;95958.91;5069026;28;20197;-85
2023/01/12 05:53:10;;;;;;;3.47;0.90;;;;;;;6.21;77.05;95963.34;5071653;28;20213;-82
2023/01/12 05:55:37;;;;;;;4.30;1.00;;;;;;;6.30;77.23;95959.16;5076165;28;20216;-83
2023/01/12 05:58:03;;;;;;;2.83;1.10;;;;;;;6.33;76.53;95958.88;5076138;28;20197;-82
2023/01/12 06:00:30;;;;;;;6.33;1.20;;;;;;;6.36;76.20;95956.00;5080782;28;20209;-83
2023/01/12 06:02:56;;;;;;;2.17;1.20;;;;;;;6.33;75.91;95957.13;5080815;28;20469;-83
2023/01/12 06:05:24;;;;;;;5.03;1.70;;;;;;;6.28;75.57;95961.03;5080300;28;20212;-82
2023/01/12 06:07:50;;;;;;;4.40;1.30;;;;;;;6.29;75.78;95950.69;5080204;28;20205;-83
2023/01/12 06:10:17;;;;;;;2.40;1.40;;;;;;;6.38;76.07;95956.69;5081455;28;20236;-82
2023/01/12 06:15:28;;;;;;;2.97;1.20;;;;;;;6.33;74.98;95946.91;5079942;28;20602;-83
2023/01/12 06:17:56;;;;;;;4.80;1.33;;;;;;;6.35;75.43;95944.22;5079292;28;20205;-83
2023/01/12 06:20:24;;;;;;;1.67;1.10;;;;;;;6.36;75.76;95949.16;5079172;28;20205;-83
2023/01/12 06:22:50;;;;;;;3.97;1.03;;;;;;;6.43;75.70;95942.53;5079502;28;20200;-83
2023/01/12 06:25:17;;;;;;;4.67;1.30;;;;;;;6.42;75.40;95948.59;5078736;28;20216;-82
2023/01/12 06:27:43;;;;;;;1.43;1.10;;;;;;;6.44;75.22;95945.91;5079965;28;20201;-82
2023/01/12 06:30:11;;;;;;;2.70;1.10;;;;;;;6.46;75.23;95954.25;5079920;28;20217;-83
2023/01/12 06:32:40;;;;;;;3.93;1.40;;;;;;;6.43;75.01;95957.88;5079684;28;20196;-83
2023/01/12 06:35:07;;;;;;;4.07;1.40;;;;;;;6.33;74.99;95964.81;5079650;28;20217;-83
2023/01/12 06:37:35;;;;;;;2.70;1.60;;;;;;;6.43;75.64;95962.19;5078708;28;20201;-85
2023/01/12 06:40:02;;;;;;;3.47;1.70;;;;;;;6.38;74.96;95967.72;5077162;28;20696;-85
2023/01/12 06:42:28;;;;;;;6.37;1.43;;;;;;;6.42;74.94;95965.69;5078278;28;20692;-82
2023/01/12 06:45:01;;;;;;;2.40;1.10;;;;;;;6.33;74.49;95961.44;5079500;28;20212;-83
2023/01/12 06:47:29;;;;;;;2.53;1.20;;;;;;;6.34;74.53;95968.97;5079644;28;20343;-85
2023/01/12 06:49:58;;;;;;;2.30;1.20;;;;;;;6.35;74.76;95962.09;5077727;28;20232;-85
2023/01/12 06:52:28;;;;;;;3.23;1.03;;;;;;;6.35;74.13;95965.44;5077441;28;20212;-85
2023/01/12 06:54:58;;;;;;;4.73;1.50;;;;;;;6.37;74.46;95966.09;5077074;28;20567;-85
2023/01/12 06:57:24;;;;;;;2.23;1.10;;;;;;;6.30;73.87;95972.75;5076751;28;20205;-85
2023/01/12 06:59:56;;;;;;;4.70;1.20;;;;;;;6.31;73.47;95968.44;5077459;28;20590;-85
2023/01/12 07:02:22;;;;;;;5.77;1.27;;;;;;;6.35;73.54;95964.66;5078321;28;20222;-85
2023/01/12 07:04:49;;;;;;;3.67;1.30;;;;;;;6.32;73.18;95964.94;5075445;28;20201;-85
2023/01/12 07:07:15;;;;;;;1.70;1.00;;;;;;;6.39;72.90;95973.66;5074724;28;20254;-82
2023/01/12 07:09:42;;;;;;;3.63;1.20;;;;;;;6.38;72.90;95967.72;5076878;28;20225;-85
2023/01/12 07:12:11;;;;;;;2.60;1.10;;;;;;;6.43;72.41;95969.88;5073396;28;20212;-85
2023/01/12 07:14:38;;;;;;;3.30;1.40;;;;;;;6.49;72.50;95971.88;5074723;28;20236;-85
2023/01/12 07:17:04;;;;;;;5.33;2.40;;;;;;;6.54;72.50;95967.91;5077116;28;20208;-85
2023/01/12 07:19:31;;;;;;;5.57;2.47;;;;;;;6.51;72.15;95975.09;5075894;28;20589;-85
2023/01/12 07:21:57;;;;;;;3.63;1.40;;;;;;;6.55;72.18;95973.84;5076447;28;20201;-85
2023/01/12 07:24:23;;;;;;;2.27;1.20;;;;;;;6.60;71.33;95971.66;5075625;28;20205;-85
2023/01/12 07:26:51;;;;;;;2.93;1.13;;;;;;;6.66;71.25;95968.53;5075139;28;20221;-85
2023/01/12 07:29:19;;;;;;;4.40;1.23;;;;;;;6.66;71.23;95972.84;5074535;28;20217;-85
2023/01/12 07:31:45;;;;;;;4.23;1.80;;;;;;;6.68;70.92;95965.84;5074819;28;20231;-85
2023/01/12 07:34:12;;;;;;;2.97;1.37;;;;;;;6.66;70.63;95955.75;5075852;28;20688;-85
2023/01/12 07:36:38;;;;;;;2.13;1.20;;;;;;;6.69;70.86;95952.91;5074601;28;20224;-85
2023/01/12 07:39:04;;;;;;;2.47;1.00;;;;;;;6.77;70.58;95941.94;5075012;28;20200;-85
2023/01/12 07:44:15;;;;;;;2.83;1.23;;;;;;;6.74;70.70;95949.91;5063599;28;20215;-85
2023/01/12 07:46:43;;;;;;;4.30;1.40;;;;;;;6.72;70.22;95949.28;5074566;28;20232;-85
2023/01/12 07:49:09;;;;;;;2.67;1.27;;;;;;;6.70;70.05;95957.09;5074060;28;20221;-83
2023/01/12 07:51:35;;;;;;;1.60;1.10;;;;;;;6.69;69.77;95950.34;5078280;28;20203;-83
2023/01/12 07:54:02;;;;;;;2.73;1.30;;;;;;;6.72;70.13;95941.59;5078891;28;20212;-83
2023/01/12 07:56:28;;;;;;;3.90;1.50;;;;;;;6.66;70.16;95940.41;5078076;28;20231;-83
2023/01/12 07:59:01;;;;;;;2.40;1.23;;;;;;;6.75;70.13;95946.41;5081675;28;20201;-83
2023/01/12 08:01:28;;;;;;;3.50;1.40;;;;;;;6.84;69.38;95936.13;5082293;28;20212;-83
2023/01/12 08:03:55;;;;;;;3.50;0.87;;;;;;;6.86;68.98;95930.84;5081424;28;20652;-83
2023/01/12 08:06:22;;;;;;;5.03;1.40;;;;;;;6.98;69.18;95928.88;5083618;28;20213;-82
2023/01/12 08:08:48;;;;;;;3.47;1.20;;;;;;;6.99;68.37;95928.72;5081368;28;20204;-82
2023/01/12 08:11:15;;;;;;;4.53;1.30;;;;;;;7.00;68.55;95924.41;5082442;28;20891;-83
2023/01/12 08:13:41;;;;;;;2.40;1.10;;;;;;;7.08;68.49;95927.06;5080868;28;20200;-82
2023/01/12 08:16:14;;;;;;;3.03;1.00;;;;;;;7.11;67.48;95921.66;5080337;28;20228;-83
2023/01/12 08:18:46;;;;;;;2.87;1.40;;;;;;;7.30;68.30;95916.38;5083966;28;20231;-82
2023/01/12 08:21:18;;;;;;;4.63;1.50;;;;;;;7.45;67.09;95911.53;5083018;28;20227;-82
2023/01/12 08:23:49;;;;;;;2.07;1.10;;;;;;;7.62;66.87;95911.50;5079598;28;20708;-83
2023/01/12 08:26:19;;;;;;;3.53;1.40;;;;;;;7.75;65.09;95903.38;5077126;28;20224;-83
2023/01/12 08:28:50;;;;;;;3.70;1.10;;;;;;;7.85;64.82;95898.97;5077891;28;20211;-82
2023/01/12 08:31:17;;;;;;;3.27;1.20;;;;;;;7.65;64.59;95895.00;5077048;28;20201;-83
2023/01/12 08:33:45;;;;;;;3.23;1.10;;;;;;;7.57;65.15;95902.63;5077868;28;20259;-83
2023/01/12 08:36:16;;;;;;;2.70;1.10;;;;;;;7.56;64.79;95901.03;5078121;28;20220;-83
2023/01/12 08:38:42;;;;;;;2.10;1.03;;;;;;;7.63;64.83;95902.03;5080770;28;20200;-82
2023/01/12 08:44:02;;;;;;;3.80;1.20;;;;;;;7.57;64.41;95908.56;5076765;28;20211;-83
2023/01/12 08:46:29;;;;;;;1.70;1.20;;;;;;;7.60;64.42;95907.47;5078181;28;20224;-83
2023/01/12 08:48:56;;;;;;;2.07;0.90;;;;;;;7.53;64.69;95909.00;5075866;28;20622;-83
2023/01/12 08:51:23;;;;;;;1.87;1.17;;;;;;;7.56;64.72;95914.63;5075120;28;20921;-83
2023/01/12 08:53:50;;;;;;;1.43;1.13;;;;;;;7.58;64.94;95915.28;5075056;28;20226;-83
2023/01/12 08:56:16;;;;;;;4.13;1.40;;;;;;;7.63;64.75;95907.16;5073766;28;20743;-83
2023/01/12 08:58:43;;;;;;;2.00;1.00;;;;;;;7.77;64.74;95914.28;5074585;28;20744;-83
2023/01/12 09:01:12;;;;;;;3.50;1.13;;;;;;;7.71;64.14;95906.41;5074715;28;20233;-82
2023/01/12 09:03:39;;;;;;;2.43;1.00;;;;;;;7.86;64.39;95897.22;5070157;28;20189;-82
2023/01/12 09:06:10;;;;;;;2.60;1.20;;;;;;;8.00;63.68;95904.34;5073956;28;20224;-83
2023/01/12 09:08:38;;;;;;;2.13;1.00;;;;;;;8.01;62.89;95898.25;5074862;28;20205;-83
2023/01/12 09:11:05;;;;;;;2.97;1.10;;;;;;;8.11;63.14;95901.50;5075162;28;20289;-83
2023/01/12 09:13:33;;;;;;;1.90;1.17;;;;;;;8.13;62.90;95904.72;5075604;28;20200;-82
2023/01/12 09:16:02;;;;;;;2.47;1.27;;;;;;;8.14;63.01;95906.31;5075331;28;20255;-83
2023/01/12 09:18:28;;;;;;;4.97;1.30;;;;;;;8.17;63.08;95908.59;5074393;28;20208;-83
2023/01/12 09:21:00;;;;;;;3.17;0.93;;;;;;;8.15;62.38;95914.81;5074116;28;20205;-83
2023/01/12 09:23:26;;;;;;;2.13;1.33;;;;;;;8.21;62.31;95915.03;5074514;28;20529;-83
2023/01/12 09:25:54;;;;;;;7.37;1.60;;;;;;;8.22;62.13;95914.06;5073863;28;20224;-83
2023/01/12 09:28:20;;;;;;;2.87;1.00;;;;;;;8.23;61.92;95913.13;5072873;28;20196;-83
2023/01/12 09:30:47;;;;;;;4.10;1.00;;;;;;;8.34;62.07;95909.47;5073675;28;20908;-82
2023/01/12 09:33:13;;;;;;;2.07;0.87;;;;;;;8.36;61.63;95909.34;5075806;28;20629;-83
2023/01/12 09:35:43;;;;;;;1.77;0.90;;;;;;;8.41;61.52;95907.91;5077270;28;20217;-82
2023/01/12 09:38:09;;;;;;;4.13;1.10;;;;;;;8.42;60.98;95904.41;5077306;28;20287;-83
2023/01/12 09:40:36;;;;;;;4.13;0.90;;;;;;;8.52;61.28;95902.50;5077627;28;20205;-82
2023/01/12 09:48:31;;;;;;;1.90;0.80;;;;;;;8.58;59.44;95913.91;5071349;28;20204;-83
2023/01/12 09:51:04;;;;;;;3.87;1.10;;;;;;;8.66;60.08;95913.91;5076941;28;20221;-83
2023/01/12 09:53:35;;;;;;;3.37;1.23;;;;;;;8.76;59.93;95917.16;5076767;28;20208;-83
2023/01/12 09:56:08;;;;;;;3.13;1.00;;;;;;;8.79;58.68;95908.34;5075775;28;20357;-82
2023/01/12 09:59:00;;;;;;;3.77;1.00;;;;;;;8.91;58.16;95905.31;5076550;28;20603;-82
2023/01/12 10:01:26;;;;;;;3.40;1.20;;;;;;;9.08;57.84;95907.91;5076881;28;20237;-83
2023/01/12 10:03:53;;;;;;;2.70;0.93;;;;;;;9.06;57.81;95892.66;5071305;28;20569;-83
2023/01/12 10:06:20;;;;;;;2.20;1.00;;;;;;;9.02;57.40;95898.28;5077419;28;20224;-83
2023/01/12 10:08:49;;;;;;;3.83;1.00;;;;;;;8.96;57.47;95879.97;5077535;28;20209;-83
2023/01/12 10:11:19;;;;;;;8.10;1.63;;;;;;;9.05;57.27;95875.63;5076291;28;20227;-82
2023/01/12 10:14:09;;;;;;;9.10;1.17;;;;;;;8.92;57.00;95870.97;5076610;28;20688;-83
2023/01/12 10:16:46;;;;;;;6.97;1.63;;;;;;;8.93;57.69;95864.06;5076206;28;20676;-83
2023/01/12 10:19:22;;;;;;;2.50;1.10;;;;;;;8.90;57.22;95870.31;5076307;28;20205;-83
2023/01/12 10:21:52;;;;;;;2.13;1.20;;;;;;;8.89;57.11;95878.19;5076287;28;20204;-83
2023/01/12 10:24:20;;;;;;;4.57;1.20;;;;;;;8.87;57.26;95873.19;5077543;28;20262;-83
2023/01/12 10:26:51;;;;;;;1.90;0.83;;;;;;;8.92;57.11;95883.81;5071894;28;20242;-83
2023/01/12 10:29:19;;;;;;;1.70;0.87;;;;;;;8.97;57.32;95881.56;5076332;28;20224;-83
2023/01/12 10:31:46;;;;;;;3.90;1.00;;;;;;;9.08;57.04;95867.59;5077215;28;20208;-83
2023/01/12 10:34:13;;;;;;;4.20;1.27;;;;;;;9.15;56.67;95873.72;5076557;28;20208;-83
2023/01/12 10:36:43;;;;;;;2.63;1.20;;;;;;;9.17;56.45;95876.13;5076152;28;20228;-83
2023/01/12 10:39:33;;;;;;;2.03;1.10;;;;;;;9.23;56.83;95860.88;5075881;28;20692;-83
2023/01/12 10:45:19;;;;;;;3.23;0.80;;;;;;;9.16;56.13;95853.97;5074101;28;20231;-83
2023/01/12 10:47:46;;;;;;;2.37;0.90;;;;;;;9.24;56.44;95851.38;5075488;28;20196;-83
2023/01/12 10:50:22;;;;;;;1.93;0.90;;;;;;;9.31;56.24;95842.88;5075198;28;20221;-83
2023/01/12 10:52:53;;;;;;;1.23;0.80;;;;;;;9.41;55.95;95832.44;5075239;28;20207;-83
2023/01/12 10:55:20;;;;;;;1.77;0.60;;;;;;;9.53;55.56;95827.75;5076775;28;20217;-82
2023/01/12 10:57:48;;;;;;;2.37;1.20;;;;;;;9.54;55.15;95834.50;5073200;28;20212;-83
2023/01/12 11:00:23;;;;;;;2.30;0.93;;;;;;;9.48;54.53;95820.53;5072071;28;20193;-83
2023/01/12 11:02:50;;;;;;;3.17;1.10;;;;;;;9.47;54.77;95828.41;5070502;28;20246;-83
2023/01/12 11:05:32;;;;;;;1.63;0.70;;;;;;;9.52;54.51;95828.72;5075475;28;20795;-83
2023/01/12 11:07:59;;;;;;;2.47;0.80;;;;;;;9.54;54.79;95829.38;5084812;28;20227;-83
2023/01/12 11:10:28;;;;;;;1.43;1.30;;;;;;;9.59;54.28;95825.34;5088500;28;20213;-83
2023/01/12 11:12:57;;;;;;;4.40;1.17;;;;;;;9.65;54.72;95829.00;5088398;28;20200;-83
2023/01/12 11:15:26;;;;;;;1.40;0.80;;;;;;;9.65;54.28;95826.44;5086893;28;20251;-83
2023/01/12 11:18:07;;;;;;;1.10;0.80;;;;;;;9.69;53.66;95820.81;5086762;28;20196;-83
2023/01/12 11:20:38;;;;;;;4.43;0.80;;;;;;;9.70;53.88;95824.97;5084935;28;20223;-82
2023/01/12 11:23:10;;;;;;;1.10;0.87;;;;;;;9.75;53.65;95821.13;5086492;28;20567;-83
2023/01/12 11:25:41;;;;;;;2.27;0.90;;;;;;;9.79;53.68;95812.13;5086428;28;20719;-83
2023/01/12 11:28:14;;;;;;;1.77;1.07;;;;;;;9.88;53.52;95824.75;5085698;28;20204;-83
2023/01/12 11:30:50;;;;;;;2.00;0.90;;;;;;;9.87;53.65;95830.88;5085120;28;20221;-82
2023/01/12 11:33:22;;;;;;;0.70;0.70;;;;;;;9.85;53.86;95824.28;5081051;28;20196;-83
2023/01/12 11:35:54;;;;;;;0.93;0.90;;;;;;;9.80;52.38;95819.66;5084013;28;20246;-83
2023/01/12 11:38:26;;;;;;;2.43;1.17;;;;;;;9.70;52.40;95809.56;5078873;28;20254;-83
2023/01/12 11:40:57;;;;;;;6.20;4.50;;;;;;;9.79;52.71;95810.34;5079232;28;20224;-83
2023/01/12 11:46:22;;;;;;;2.83;1.10;;;;;;;9.79;52.73;95812.91;5075419;28;20274;-83
2023/01/12 11:48:57;;;;;;;1.53;0.70;;;;;;;9.78;52.51;95797.66;5074224;28;20232;-83
2023/01/12 11:51:24;;;;;;;2.50;1.03;;;;;;;9.79;52.94;95801.81;5073479;28;20215;-83
2023/01/12 11:53:50;;;;;;;2.17;0.93;;;;;;;9.82;52.78;95802.28;5076847;28;20201;-83
2023/01/12 11:56:28;;;;;;;1.57;0.80;;;;;;;9.86;53.35;95797.59;5076623;28;20251;-83
2023/01/12 11:59:01;;;;;;;1.57;1.00;;;;;;;9.91;53.30;95792.78;5077466;28;20207;-83
2023/01/12 12:01:35;;;;;;;3.57;0.90;;;;;;;9.86;53.06;95795.84;5078878;28;20208;-83
2023/01/12 12:04:21;;;;;;;3.87;1.00;;;;;;;9.80;53.40;95790.56;5074843;28;20202;-83
2023/01/12 12:07:05;;;;;;;6.57;1.20;;;;;;;9.82;53.60;95786.84;5077728;28;20216;-83
2023/01/12 12:09:43;;;;;;;1.97;0.80;;;;;;;9.82;53.81;95786.03;5077586;28;20201;-83
2023/01/12 12:12:20;;;;;;;2.30;1.17;;;;;;;9.87;53.77;95776.06;5077264;28;20228;-83
2023/01/12 12:15:02;;;;;;;2.17;0.83;;;;;;;9.87;53.96;95771.72;5077443;28;20227;-83
2023/01/12 12:17:41;;;;;;;2.97;0.80;;;;;;;9.80;54.28;95773.38;5077772;28;20189;-83
2023/01/12 12:20:17;;;;;;;1.13;0.90;;;;;;;9.83;54.49;95770.44;5077271;28;20204;-83
2023/01/12 12:22:59;;;;;;;2.03;1.00;;;;;;;9.76;54.32;95763.59;5077259;28;20222;-83
2023/01/12 12:25:35;;;;;;;2.27;1.00;;;;;;;9.76;54.26;95766.97;5076957;28;20603;-83
2023/01/12 12:28:33;;;;;;;13.90;9.67;;;;;;;9.84;54.84;95763.53;5076140;28;20207;-84
2023/01/12 12:31:26;;;;;;;1.80;0.90;;;;;;;9.81;54.45;95751.84;5076922;28;20236;-83